Weather at Bolton Field

Public forecast

Using degrees Fahrenheit for public forecast. Weather courtesy of forecast.io.

Current aviation weather report (METAR) for Bolton Field

Retrieved 2020/11/29 14:45 UTC (1 hour ago):

KTZR 291445Z 00000KT 7SM CLR 02/01 A3012

Closest aviation forecast (TAF) to Bolton Field

Closest forecast is Rickenbacker International Airport, 11.0 nm (20.3 km) ESE. Retrieved 2020/11/29 12:39 UTC (3 hours ago):

TAF KLCK 291131Z 2912/3012 00000KT 5SM BR FEW250 FM291300 16005KT P6SM SCT250 FM300100 VRB02KT P6SM SCT045 BKN200 FM300500 36003KT P6SM VCSH OVC045 FM300800 36003KT 3SM -RA BR BKN012 OVC025 FM301000 35009KT 2SM RA BR OVC008